Tiempo atmosférico en la estación meteorológica de Andújar, Jaén (193 m.)



Fecha
DESCASC
Temp. máxima en grados centígrados (hora)
DESCASC
Temp. mínima en grados centígrados (hora)
DESCASC
Temp. media en grados centígrados
DESCASC
Racha de viento máxima en m/sg (hora)
DESCASC
Velocidad máxima media en intervalos de 10 minutos(hora)
DESCASC
Precipitaciones diarias en mm
DESCASC
Precipitaciones de 00:00 a 06:00 en mm
DESCASC
Precipitaciones de 06:00 a 12:00 en mm
DESCASC
Precipitaciones de 12:00 a 18:00 en mm
DESCASC
Precipitaciones de 18:00 a 24:00 en mm
DESCASC
27-07-2019 30.3 (16:30) 16.7 (00:00) 23.5 11.67 (18:10) 5.83 (17:40) 0 0 0 0 0
12-08-2019 36.2 (17:50) 14.4 (00:00) 25.3 7.22 (15:00) 3.61 (11:50) 0 0 0 0 0
13-08-2019 37.1 (17:50) 13.9 (00:00) 25.5 6.94 (15:30) 2.5 (14:10) 0 0 0 0 0
11-08-2019 35.4 (17:00) 16.6 (00:00) 26 8.33 (00:50) 5.28 (20:00) 0 0 0 0 0
21-08-2019 35.8 (16:20) 17.2 (00:00) 26.5 7.5 (14:30) 3.33 (17:50) 0 0 0 0 0
09-08-2019 36.2 (16:00) 17.6 (00:00) 26.9 9.44 (17:10) 5.28 (23:50) 0 0 0 0 0
26-07-2019 34 (16:30) 20 (00:00) 27 10.83 (15:20) 5.83 (18:30) 0 0 0 0 0
29-07-2019 36.1 (17:20) 18.1 (00:00) 27.1 8.06 (00:30) 4.44 (00:30) 0 0 0 0 0
30-07-2019 37.4 (16:20) 16.8 (00:00) 27.1 5.83 (17:20) 3.33 (21:50) 0 0 0 0 0
07-08-2019 35.9 (15:00) 18.2 (00:00) 27.1 7.22 (00:40) 5 (00:40) 0 0 0 0 0
28-07-2019 34.9 (16:30) 19.6 (00:00) 27.3 7.5 (23:59) 4.44 (00:10) 0 0 0 0 0
20-08-2019 37.4 (17:40) 17.2 (00:00) 27.3 8.89 (00:10) 5.28 (00:30) 0 0 0 0 0
31-07-2019 39 (16:50) 16.2 (00:00) 27.6 8.33 (22:30) 4.72 (22:30) 0 0 0 0 0
03-08-2019 37.9 (15:20) 17.5 (00:00) 27.7 8.61 (19:40) 5.56 (19:30) 0 0 0 0 0
19-08-2019 37.1 (15:40) 18.4 (00:00) 27.7 9.17 (23:59) 5.56 (23:50) 0 0 0 0 0
06-08-2019 38.3 (17:20) 17.3 (00:00) 27.8 8.33 (18:00) 4.17 (18:50) 0 0 0 0 0
04-08-2019 37.8 (17:20) 17.7 (00:00) 27.8 8.06 (23:59) 4.72 (23:59) 0 0 0 0 0
05-08-2019 38.5 (17:20) 17.4 (00:00) 27.9 8.61 (20:00) 5 (20:00) 0 0 0 0 0
14-08-2019 38.6 (17:00) 17.7 (00:00) 28.1 6.39 (17:10) 2.5 (16:40) 0 0 0 0 0
18-08-2019 38.6 (15:50) 18.1 (00:00) 28.3 9.72 (23:10) 5.83 (19:50) 0 0 0 0 0
08-08-2019 38.2 (16:40) 18.5 (00:00) 28.4 8.89 (17:00) 4.44 (19:20) 0 0 0 0 0
24-08-2019 39 (16:50) 18.2 (00:00) 28.6 7.78 (22:10) 4.44 (22:10) 0 0 0 0 0
15-08-2019 40.5 (16:20) 16.9 (00:00) 28.7 6.39 (23:59) 3.61 (23:59) 0 0 0 0 0
10-08-2019 37.1 (17:10) 20.4 (00:00) 28.7 8.06 (00:50) 5 (00:10) 0 0 0 0 0
01-08-2019 36.9 (16:40) 20.5 (00:00) 28.7 7.22 (13:30) 3.61 (00:30) 0 0 0 0 0
02-08-2019 40.2 (16:50) 17.3 (00:00) 28.8 7.5 (19:50) 4.72 (20:30) 0 0 0 0 0
23-08-2019 38.5 (17:30) 19.6 (00:00) 29.1 7.22 (23:59) 5 (23:59) 0 0 0 0 0
16-08-2019 39 (16:30) 19.7 (00:00) 29.4 7.5 (23:59) 4.72 (23:59) 0 0 0 0 0
17-08-2019 39.8 (16:40) 19.3 (00:00) 29.5 8.33 (00:20) 4.72 (00:20) 0 0 0 0 0
22-08-2019 38.2 (18:20) 20.7 (00:00) 29.5 7.22 (14:10) 3.89 (23:00) 0 0 0 0 0

Gráficas

Temp. máximas Temp. mínimas Temp. medias Precipitaciones Rachas de viento máximas Velocidades máximas media en intervalos de 10 minutos

Datos horarios

Fecha y hora oficial Temperatura (ºC) Velocidad del viento (km/h) Dirección del viento Racha (km/h) Dirección de racha Precipitación (mm) Presión (hPa) Tendencia (hPa) Humedad (%)
2019-08-24 23:00:00 26.5 9 Noroeste 28 Oeste 0 990.1 1.6 40
2019-08-24 22:00:00 25.9 6 Oeste 19 Oeste 0 989.2 0.4 39
2019-08-24 21:00:00 30.8 0 Calma 5 Oeste 0 988.4 -0.9 29
2019-08-24 20:00:00 35.7 0 Calma 11 Este 0 988.5 -1.3 24
2019-08-24 19:00:00 35.7 5 Oeste 11 Sudeste 0 988.8 -1.6 24
2019-08-24 18:00:00 38.1 3 Oeste 19 Oeste 0 989.3 -2 21
2019-08-24 17:00:00 37.7 2 Nordeste 14 Este 0 989.8 -2.2 21
2019-08-24 16:00:00 36.5 6 Sudeste 18 Sudeste 0 990.4 -2.4 26
2019-08-24 15:00:00 36.1 5 Sudeste 18 Sudeste 0 991.3 -2 30
2019-08-24 14:00:00 33.2 6 Este 17 Este 0 992 -1.6 34
2019-08-24 13:00:00 31.3 7 Este 21 Sudeste 0 992.8 -0.9 37
2019-08-24 12:00:00 29.8 9 Este 16 Sudeste 0 993.3 -0.1 42
2019-08-24 11:00:00 27.5 5 Este 12 Este 0 993.6 0.5 46
2019-08-24 10:00:00 25.1 6 Este 10 Este 0 993.7 0.8 54
2019-08-24 09:00:00 20.6 0 Calma 5 Sudeste 0 993.4 0.5 64
2019-08-24 08:00:00 18.3 0 Calma 5 Este 0 993.1 0.5 69
2019-08-24 07:00:00 19.1 2 Este 5 Este 0 992.9 0.3 67
2019-08-24 06:00:00 19.4 0 Calma 9 Noroeste 0 992.9 0.6 70
2019-08-24 05:00:00 21.5 7 Noroeste 18 Oeste 0 992.6 0.1 58
2019-08-24 04:00:00 23.6 9 Sudoeste 15 Sudoeste 0 992.6 0.8 53
2019-08-24 03:00:00 23.3 10 Oeste 15 Oeste 0 992.3 1.1 54
2019-08-24 02:00:00 23.1 10 Oeste 17 Noroeste 0 992.5 1.7 54
2019-08-24 01:00:00 25.1 12 Oeste 22 Oeste 0 991.8 2 46
2019-08-24 00:00:00 27.4 18 Sudoeste 26 Sudoeste 0 991.2 2.1 42
2019-08-23 23:00:00 27.3 13 Noroeste 22 Oeste 0 990.8 1.8 44
2019-08-23 22:00:00 27.1 9 Oeste 17 Oeste 0 989.8 0.6 36
2019-08-23 21:00:00 31.6 4 Sudoeste 5 Sudoeste 0 989.1 -0.4 26
2019-08-23 20:00:00 34.9 0 Calma 9 Nordeste 0 989 -1.1 25
2019-08-23 19:00:00 36 4 Sudeste 14 Este 0 989.2 -1.6 22
2019-08-23 18:00:00 37.5 4 Nordeste 13 Este 0 989.5 -2.3 21
2019-08-23 17:00:00 37.4 4 Sudeste 16 Este 0 990.1 -2.3 23
2019-08-23 16:00:00 35.1 5 Este 19 Sudeste 0 990.8 -2.2 24
2019-08-23 15:00:00 35 8 Sudeste 24 Este 0 991.8 -1.9 26
2019-08-23 14:00:00 34.8 5 Este 20 Sudeste 0 992.4 -1.4 26
2019-08-23 13:00:00 32.6 6 Sudeste 18 Este 0 993 -0.8 28
2019-08-23 12:00:00 31.3 4 Este 18 Este 0 993.7 0.2 32
2019-08-23 11:00:00 28.7 8 Este 17 Este 0 993.8 0.9 37
2019-08-23 10:00:00 26.8 11 Este 18 Este 0 993.8 1.3 49
2019-08-23 09:00:00 23.2 5 Este 8 Este 0 993.5 1.1 72
2019-08-23 08:00:00 20.2 0 Calma 5 Este 0 992.9 0.5 83
2019-08-23 07:00:00 19.7 0 Calma 3 Oeste 0 992.5 -0.2 87
2019-08-23 06:00:00 21.1 0 Calma 4 Sudoeste 0 992.4 -0.1 83
2019-08-23 05:00:00 22.9 6 Sudoeste 9 Sudoeste 0 992.4 -0.2 77
2019-08-23 04:00:00 22.6 2 Oeste 6 Oeste 0 992.7 0.7 78
2019-08-23 03:00:00 24.3 3 Oeste 15 Oeste 0 992.5 0.6 71
2019-08-23 02:00:00 25.5 6 Sudoeste 14 Noroeste 0 992.6 1.3 66
2019-08-23 01:00:00 25.1 9 Noroeste 16 Noroeste 0 992 1.9 68
2019-08-23 00:00:00 26.2 8 Oeste 22 Oeste 0 991.9 2.6 60
2019-08-22 23:00:00 28.6 14 Oeste 23 Oeste 0 991.3 2.2 54
2019-08-22 22:00:00 30.1 14 Oeste 23 Sudoeste 0 990.1 0.9 42
2019-08-22 21:00:00 32.1 0 Calma 5 Sudeste 0 989.3 -0.4 28
2019-08-22 20:00:00 35 4 Este 10 Este 0 989.1 -1.1 27
2019-08-22 19:00:00 36.3 3 Nordeste 13 Este 0 989.2 -1.7 26
2019-08-22 18:00:00 37.4 3 Este 16 Este 0 989.7 -1.9 27
2019-08-22 17:00:00 35.8 4 Este 19 Este 0 990.2 -2.1 28
2019-08-22 16:00:00 35.8 8 Este 20 Este 0 990.9 -2.4 31
2019-08-22 15:00:00 34.3 5 Este 26 Este 0 991.6 -2.1 36
2019-08-22 14:00:00 33.3 8 Sudeste 20 Este 0 992.3 -1.7 40
2019-08-22 13:00:00 31.4 6 Este 20 Sudeste 0 993.3 -0.8 45
2019-08-22 12:00:00 28.8 6 Este 18 Este 0 993.7 -0.2 49
2019-08-22 11:00:00 28.6 9 Este 17 Este 0 994 0.5 52
2019-08-22 10:00:00 26.6 8 Este 15 Este 0 994.1 1.1 61
2019-08-22 09:00:00 23.7 0 Calma 6 Este 0 993.9 1 74
2019-08-22 08:00:00 21.1 0 Calma 7 Sudoeste 0 993.5 0.3 82
2019-08-22 07:00:00 21.1 0 Calma 9 Oeste 0 993 0 83
2019-08-22 06:00:00 22.3 4 Oeste 12 Oeste 0 992.9 -0.3 79
2019-08-22 05:00:00 22.8 0 Calma 8 Oeste 0 993.2 0.4 74
2019-08-22 04:00:00 23.6 4 Noroeste 7 Oeste 0 993 0.5 68
2019-08-22 03:00:00 24.2 4 Noroeste 17 Oeste 0 993.2 0.9 66
2019-08-22 02:00:00 26.7 7 Noroeste 23 Oeste 0 992.8 1 56
2019-08-22 01:00:00 26.5 0 Calma 3 Sur 0 992.5 1.4 55
2019-08-22 00:00:00 26.8 0 Calma 6 Sur 0 992.3 2.2 54
2019-08-21 23:00:00 27.4 3 Sudeste 8 Sudeste 0 991.8 2.4 52
2019-08-21 22:00:00 28.2 0 Calma 20 Este 0 991.1 1.9 49
2019-08-21 21:00:00 29.8 10 Este 18 Este 0 990.1 0.7 44
2019-08-21 20:00:00 32.3 5 Oeste 18 Oeste 0 989.4 -0.4 40
2019-08-21 19:00:00 33.8 7 Oeste 19 Noroeste 0 989.2 -1.1 39
2019-08-21 18:00:00 35.1 9 Oeste 24 Oeste 0 989.4 -1.7 39
2019-08-21 17:00:00 34.1 12 Noroeste 22 Oeste 0 989.8 -1.8 40
2019-08-21 16:00:00 33.7 5 Noroeste 20 Noroeste 0 990.3 -2.3 39
2019-08-21 15:00:00 34.8 4 Noroeste 27 Sudoeste 0 991.1 -2.2 41
2019-08-21 14:00:00 32.6 6 Oeste 14 Oeste 0 991.6 -1.7 43
2019-08-21 13:00:00 31.1 4 Noroeste 8 Noroeste 0 992.6 -0.9 45
2019-08-21 12:00:00 29.9 3 Oeste 9 Sur 0 993.3 0.2 48
2019-08-21 11:00:00 28.4 0 Calma 5 Nordeste 0 993.3 0.3 49
2019-08-21 10:00:00 24.2 0 Calma 5 Sudeste 0 993.5 1 46
2019-08-21 09:00:00 19.9 0 Calma 3 Sur 0 993.1 0.9 58
2019-08-21 08:00:00 18.5 0 Calma 9 Sudeste 0 993 0.7 54
2019-08-21 07:00:00 18.1 2 Este 7 Este 0 992.5 0.3 55
2019-08-21 06:00:00 17.7 0 Calma 7 Sudeste 0 992.2 0 55
2019-08-21 05:00:00 18.4 4 Este 9 Este 0 992.3 0.5 47
2019-08-21 04:00:00 18.9 0 Calma 6 Sudeste 0 992.2 1.2 47
2019-08-21 03:00:00 19.7 2 Sudoeste 6 Sudeste 0 992.2 1.8 44
2019-08-21 02:00:00 20.4 2 Sudeste 7 Noroeste 0 991.8 1.8 43
2019-08-21 01:00:00 22.8 2 Este 14 Sudoeste 0 991 1.7 33
2019-08-21 00:00:00 27.4 9 Sudoeste 15 Sudoeste 0 990.4 1.6 29
2019-08-20 23:00:00 27.7 9 Sudoeste 14 Sudoeste 0 990 1.5 32
2019-08-20 22:00:00 26.2 6 Noroeste 13 Oeste 0 989.3 0.5 32
2019-08-20 21:00:00 29.4 8 Oeste 16 Sudoeste 0 988.8 -0.1 27
2019-08-20 20:00:00 32.3 6 Sudoeste 14 Oeste 0 988.5 -0.8 25
2019-08-20 19:00:00 34.3 6 Oeste 14 Sudoeste 0 988.8 -1.1 24
2019-08-20 18:00:00 34.2 8 Noroeste 16 Oeste 0 988.9 -1.5 24
2019-08-20 17:00:00 35.3 5 Noroeste 16 Noroeste 0 989.3 -1.7 22
2019-08-20 16:00:00 35.5 3 Sudoeste 16 Oeste 0 989.9 -1.6 23
2019-08-20 15:00:00 34 8 Noroeste 17 Oeste 0 990.4 -1.4 27
2019-08-20 14:00:00 32.5 2 Oeste 14 Oeste 0 991 -0.6 30
2019-08-20 13:00:00 32.4 0 Calma 9 Este 0 991.5 0.2 32
2019-08-20 12:00:00 28.7 0 Calma 7 Noroeste 0 991.8 1 38
2019-08-20 11:00:00 26.3 0 Calma 6 Oeste 0 991.6 1.1 45
2019-08-20 10:00:00 25.2 2 Noroeste 8 Oeste 0 991.3 1.2 51
2019-08-20 09:00:00 21.2 3 Noroeste 8 Oeste 0 990.8 0.7 62
2019-08-20 08:00:00 17.7 0 Calma 6 Oeste 0 990.5 0.6 65
2019-08-20 07:00:00 18.4 0 Calma 5 Noroeste 0 990.1 0.2 64
2019-08-20 06:00:00 17.9 6 Oeste 9 Oeste 0 990.1 0.1 66
2019-08-20 05:00:00 19.1 6 Oeste 11 Noroeste 0 989.9 -0.1 61
2019-08-20 04:00:00 19.5 10 Noroeste 12 Oeste 0 989.9 0.1 60
2019-08-20 03:00:00 22.1 6 Oeste 13 Oeste 0 990 0.8 51
2019-08-20 02:00:00 22.3 6 Oeste 23 Oeste 0 990 1.3 46
2019-08-20 01:00:00 27.1 17 Oeste 32 Sudoeste 0 989.8 1.8 38
2019-08-20 00:00:00 28.3 20 Oeste 33 Sudoeste 0 989.2 1.9 37
2019-08-19 23:00:00 28.5 12 Oeste 18 Oeste 0 988.7 1.5 40
2019-08-19 22:00:00 28.6 10 Oeste 21 Oeste 0 988 0.7 38
2019-08-19 21:00:00 31.8 12 Oeste 26 Oeste 0 987.3 -0.3 33
2019-08-19 20:00:00 33.5 15 Oeste 26 Oeste 0 987.2 -0.8 30
2019-08-19 19:00:00 34.4 12 Oeste 29 Noroeste 0 987.3 -1.3 31
2019-08-19 18:00:00 35.6 17 Oeste 30 Oeste 0 987.6 -1.6 30
2019-08-19 17:00:00 36.1 14 Oeste 30 Noroeste 0 988 -1.7 32
2019-08-19 16:00:00 34.6 13 Noroeste 30 Noroeste 0 988.6 -1.7 34
2019-08-19 15:00:00 34.1 8 Noroeste 24 Oeste 0 989.2 -1.5 37
2019-08-19 14:00:00 33.1 9 Noroeste 19 Oeste 0 989.7 -1.2 39
2019-08-19 13:00:00 32 4 Noroeste 15 Noroeste 0 990.3 -0.6 43
2019-08-19 12:00:00 30.5 0 Calma 9 Este 0 990.7 -0.1 46
2019-08-19 11:00:00 28 0 Calma 9 Sudeste 0 990.9 0.4 50
2019-08-19 10:00:00 25 0 Calma 7 Noroeste 0 990.9 0.9 60
2019-08-19 09:00:00 21.1 0 Calma 4 Noroeste 0 990.8 1 75
2019-08-19 08:00:00 18.6 0 Calma 6 Oeste 0 990.5 0.4 75
2019-08-19 07:00:00 18.6 3 Oeste 7 Oeste 0 990 -0.2 74
2019-08-19 06:00:00 18.7 3 Noroeste 8 Noroeste 0 989.8 -0.5 72
2019-08-19 05:00:00 20.6 5 Noroeste 10 Oeste 0 990.1 -0.3 66
2019-08-19 04:00:00 21.2 0 Calma 6 Oeste 0 990.2 0.4 61
2019-08-19 03:00:00 21.7 5 Oeste 9 Oeste 0 990.3 0.8 61
2019-08-19 02:00:00 23.4 0 Calma 14 Noroeste 0 990.4 1.5 52
2019-08-19 01:00:00 25.9 7 Oeste 26 Oeste 0 989.8 2.3 44
2019-08-19 00:00:00 29.3 17 Oeste 35 Oeste 0 989.5 2.7 38
2019-08-18 23:00:00 30.9 17 Oeste 29 Oeste 0 988.9 2.4 36
2019-08-18 22:00:00 30.7 9 Oeste 22 Sudoeste 0 987.5 1 34
2019-08-18 21:00:00 32.9 12 Oeste 33 Oeste 0 986.8 0.1 32
2019-08-18 20:00:00 34.7 17 Oeste 31 Oeste 0 986.5 -0.5 30
2019-08-18 19:00:00 36.1 15 Oeste 33 Oeste 0 986.5 -1.1 29
2019-08-18 18:00:00 36.4 19 Oeste 32 Oeste 0 986.7 -1.3 28
2019-08-18 17:00:00 37.3 18 Oeste 31 Oeste 0 987 -1.5 27
2019-08-18 16:00:00 37.8 14 Oeste 28 Oeste 0 987.6 -1.5 28
2019-08-18 15:00:00 37.2 11 Oeste 23 Oeste 0 988 -1.5 29
2019-08-18 14:00:00 36.2 9 Oeste 22 Noroeste 0 988.5 -1.1 30
2019-08-18 13:00:00 34.7 3 Oeste 16 Noroeste 0 989.1 -0.3 34
2019-08-18 12:00:00 31.6 3 Norte 9 Noroeste 0 989.5 0.5 38
2019-08-18 11:00:00 31 0 Calma 6 Este 0 989.6 0.9 39
2019-08-18 10:00:00 27.6 2 Este 9 Este 0 989.4 1.3 48
2019-08-18 09:00:00 22.1 0 Calma 4 Sudeste 0 989 1 57
2019-08-18 08:00:00 18.3 0 Calma 5 Este 0 988.7 0.4 61
2019-08-18 07:00:00 18.8 0 Calma 7 Este 0 988.1 -0.5 59
2019-08-18 06:00:00 19.8 0 Calma 3 Sudeste 0 988 -0.8 57
2019-08-18 05:00:00 20.8 0 Calma 3 Norte 0 988.3 -0.7 54
2019-08-18 04:00:00 21.6 0 Calma 6 Oeste 0 988.6 0.1 50
2019-08-18 03:00:00 22.9 2 Oeste 9 Noroeste 0 988.8 0.9 46
2019-08-18 02:00:00 25 3 Noroeste 9 Norte 0 989 1.9 40
2019-08-18 01:00:00 28.3 7 Oeste 22 Oeste 0 988.5 2 35
2019-08-18 00:00:00 26.1 3 Noroeste 19 Sudoeste 0 987.9 1.8 38
2019-08-17 23:00:00 33.1 13 Sudoeste 19 Sudoeste 0 987.1 1.1 30
2019-08-17 22:00:00 30.5 4 Noroeste 14 Oeste 0 986.5 0.2 34
2019-08-17 21:00:00 31.6 9 Oeste 18 Oeste 0 986.1 -0.8 33
2019-08-17 20:00:00 34.3 10 Noroeste 23 Oeste 0 986 -1.3 32
2019-08-17 19:00:00 37.1 12 Noroeste 29 Oeste 0 986.3 -1.8 28
2019-08-17 18:00:00 39.3 15 Oeste 28 Oeste 0 986.9 -2.2 27
2019-08-17 17:00:00 39.1 9 Noroeste 27 Noroeste 0 987.3 -2.5 29
2019-08-17 16:00:00 38.7 12 Oeste 23 Oeste 0 988.1 -2.6 29
2019-08-17 15:00:00 38.2 7 Noroeste 18 Noroeste 0 989.1 -2.4 30
2019-08-17 14:00:00 37.9 3 Noroeste 10 Sudeste 0 989.8 -2.1 30
2019-08-17 13:00:00 35.8 3 Este 10 Este 0 990.7 -1.5 31
2019-08-17 12:00:00 32.1 4 Este 14 Este 0 991.5 -0.5 36
2019-08-17 11:00:00 30.7 5 Sudeste 12 Este 0 991.9 0.1 42
2019-08-17 10:00:00 28 4 Este 8 Este 0 992.2 0.9 47
2019-08-17 09:00:00 23 0 Calma 5 Este 0 992 1.1 58
2019-08-17 08:00:00 20.3 2 Sudeste 5 Sudeste 0 991.8 0.8 64
2019-08-17 07:00:00 21 0 Calma 8 Sudoeste 0 991.3 0.2 56
2019-08-17 06:00:00 20.9 0 Calma 3 Noroeste 0 990.9 -0.2 56
2019-08-17 05:00:00 21.9 0 Calma 5 Noroeste 0 991 -0.2 53
2019-08-17 04:00:00 23.2 3 Oeste 6 Oeste 0 991.1 0.3 49
2019-08-17 03:00:00 24.4 0 Calma 11 Noroeste 0 991.1 0.6 46
2019-08-17 02:00:00 25.7 6 Noroeste 22 Oeste 0 991.2 1.2 43
2019-08-17 01:00:00 30.4 14 Sudoeste 30 Sudoeste 0 990.8 1.5 36
2019-08-17 00:00:00 31.1 17 Oeste 27 Sudoeste 0 990.5 1.7 35
2019-08-16 23:00:00 28.7 4 Oeste 15 Oeste 0 990 1.5 37
2019-08-16 22:00:00 30.6 9 Oeste 15 Oeste 0 989.3 0.7 34
2019-08-16 21:00:00 32.6 8 Oeste 24 Oeste 0 988.8 -0.2 32
2019-08-16 20:00:00 35.6 14 Oeste 24 Oeste 0 988.5 -1.2 29
2019-08-16 19:00:00 35.7 12 Noroeste 22 Oeste 0 988.6 -1.6 31
2019-08-16 18:00:00 38.1 12 Oeste 22 Noroeste 0 989 -2.1 30
2019-08-16 17:00:00 37.9 10 Oeste 22 Noroeste 0 989.7 -1.9 30
2019-08-16 16:00:00 37.8 6 Oeste 23 Oeste 0 990.2 -2 31
2019-08-16 15:00:00 37.1 8 Noroeste 22 Oeste 0 991.1 -1.9 34
2019-08-16 14:00:00 35.9 8 Noroeste 19 Oeste 0 991.6 -1.4 37
2019-08-16 13:00:00 34.7 6 Oeste 14 Norte 0 992.2 -1.1 38
2019-08-16 12:00:00 32.2 3 Oeste 8 Noroeste 0 993 0.1 39
2019-08-16 11:00:00 30.2 0 Calma 10 Sudeste 0 993 0.3 44
2019-08-16 10:00:00 27.7 2 Este 6 Este 0 993.3 1.2 52
2019-08-16 09:00:00 22 3 Sudeste 6 Este 0 992.9 1 64
2019-08-16 08:00:00 20 2 Este 5 Este 0 992.7 0.8 64
2019-08-16 07:00:00 20.9 0 Calma 2 Sudoeste 0 992.1 0.2 63
2019-08-16 06:00:00 21 0 Calma 3 Este 0 991.9 0 63
2019-08-16 05:00:00 21 2 Noroeste 5 Noroeste 0 991.9 0 65
2019-08-16 04:00:00 22.1 3 Oeste 7 Oeste 0 991.9 0.4 63
2019-08-16 03:00:00 24.7 4 Noroeste 13 Oeste 0 991.9 1 50
2019-08-16 02:00:00 24.4 0 Calma 7 Noroeste 0 991.9 1.4 44
2019-08-16 01:00:00 24.4 6 Noroeste 18 Sudoeste 0 991.5 1.9 43
2019-08-16 00:00:00 29.8 13 Sudoeste 23 Oeste 0 990.9 1.9 34
2019-08-15 23:00:00 26.5 4 Noroeste 16 Oeste 0 990.5 1.5 37
2019-08-15 22:00:00 31.7 10 Sudoeste 16 Sudoeste 0 989.6 0.5 27
2019-08-15 21:00:00 33.1 8 Sudoeste 14 Oeste 0 989 -0.3 27
2019-08-15 20:00:00 34.9 8 Oeste 14 Oeste 0 989 -0.9 28
2019-08-15 19:00:00 37.9 6 Sudoeste 17 Sudoeste 0 989.1 -1.5 23
2019-08-15 18:00:00 38 4 Oeste 19 Sur 0 989.3 -2 23
2019-08-15 17:00:00 39.7 5 Sudoeste 18 Sudoeste 0 989.9 -2.1 23
2019-08-15 16:00:00 38.3 6 Sudoeste 21 Noroeste 0 990.6 -2.4 24
2019-08-15 15:00:00 38.6 2 Noroeste 10 Noroeste 0 991.3 -2.3 26
2019-08-15 14:00:00 35.4 4 Noroeste 9 Noroeste 0 992 -1.7 34
2019-08-15 13:00:00 33.7 4 Noroeste 9 Este 0 993 -0.9 41
2019-08-15 12:00:00 31 0 Calma 8 Este 0 993.6 -0.2 43
2019-08-15 11:00:00 28.4 0 Calma 10 Este 0 993.7 0.2 47
2019-08-15 10:00:00 25.6 5 Este 9 Sudeste 0 993.9 1 50
2019-08-15 09:00:00 21 0 Calma 6 Este 0 993.8 1.2 58
2019-08-15 08:00:00 17.6 0 Calma 3 Noroeste 0 993.5 1.1 64
2019-08-15 07:00:00 17.3 2 Noroeste 6 Noroeste 0 992.9 0.6 61
2019-08-15 06:00:00 18.1 0 Calma 3 Sudeste 0 992.6 0.4 56
2019-08-15 05:00:00 18.1 0 Calma 2 Oeste 0 992.4 0.2 51
2019-08-15 04:00:00 19.2 0 Calma 6 Este 0 992.3 0.2 48
2019-08-15 03:00:00 20.9 0 Calma 6 Sudoeste 0 992.2 0.3 47
2019-08-15 02:00:00 21.8 2 Sudeste 5 Sudeste 0 992.2 0.6 43
2019-08-15 01:00:00 22.4 0 Calma 7 Norte 0 992.1 1.3 42
2019-08-15 00:00:00 24.4 4 Este 9 Sudeste 0 991.9 1.5 35
2019-08-14 23:00:00 25.9 3 Oeste 7 Norte 0 991.6 1.5 32
2019-08-14 22:00:00 28.4 3 Sudoeste 10 Sudoeste 0 990.8 0.5 26
2019-08-14 21:00:00 32.3 6 Sudoeste 10 Oeste 0 990.4 -0.3 24
2019-08-14 20:00:00 33.8 8 Oeste 15 Sudoeste 0 990.1 -1.1 24
2019-08-14 19:00:00 35.6 7 Sudoeste 20 Sudeste 0 990.3 -1.6 24
2019-08-14 18:00:00 37.1 3 Sudoeste 23 Oeste 0 990.7 -2.1 23
2019-08-14 17:00:00 37.4 4 Sudoeste 21 Sudoeste 0 991.2 -2.2 22
2019-08-14 16:00:00 36 6 Oeste 16 Oeste 0 991.9 -2.4 26
2019-08-14 15:00:00 36.3 6 Oeste 15 Norte 0 992.8 -2.1 30
2019-08-14 14:00:00 32.7 6 Oeste 14 Sudoeste 0 993.4 -1.7 38
2019-08-14 13:00:00 31.4 2 Noroeste 10 Noroeste 0 994.3 -0.9 43
2019-08-14 12:00:00 29.1 0 Calma 10 Noroeste 0 994.9 -0.1 48
2019-08-14 11:00:00 26.9 2 Noroeste 7 Este 0 995.1 0.8 53
2019-08-14 10:00:00 25 3 Este 7 Sudeste 0 995.2 1.4 50
2019-08-14 09:00:00 20.2 3 Este 5 Este 0 995 1.4 60
2019-08-14 08:00:00 18.1 0 Calma 5 Oeste 0 994.3 0.9 61
2019-08-14 07:00:00 19 3 Noroeste 9 Oeste 0 993.8 0.5 57
2019-08-14 06:00:00 19.2 5 Oeste 7 Oeste 0 993.6 0.6 59
2019-08-14 05:00:00 18.9 0 Calma 6 Oeste 0 993.4 0.6 64
2019-08-14 04:00:00 18.9 4 Oeste 6 Oeste 0 993.3 0.9 64
2019-08-14 03:00:00 20.6 0 Calma 6 Sudeste 0 993 1.2 56
2019-08-14 02:00:00 21.4 0 Calma 6 Oeste 0 992.8 1.4 50
2019-08-14 01:00:00 22.2 0 Calma 11 Oeste 0 992.4 1.8 44
2019-08-14 00:00:00 22.6 7 Noroeste 11 Oeste 0 991.8 2 43
2019-08-13 23:00:00 24.7 0 Calma 5 Noroeste 0 991.4 1.7 32
2019-08-13 22:00:00 27.2 2 Noroeste 8 Sudoeste 0 990.6 0.9 29
2019-08-13 21:00:00 29.6 4 Sudoeste 6 Sur 0 989.8 0 25
2019-08-13 20:00:00 31.8 7 Oeste 10 Oeste 0 989.7 -0.6 30
2019-08-13 19:00:00 33.9 7 Oeste 19 Sudoeste 0 989.7 -1.5 24
2019-08-13 18:00:00 34.5 6 Sudoeste 15 Oeste 0 989.8 -2 22
2019-08-13 17:00:00 34.9 5 Oeste 20 Sudoeste 0 990.3 -1.9 22
2019-08-13 16:00:00 34.9 0 Calma 25 Oeste 0 991.2 -1.5 21
2019-08-13 15:00:00 34.7 3 Oeste 17 Sudoeste 0 991.8 -1 22
2019-08-13 14:00:00 32.8 6 Oeste 17 Sudoeste 0 992.2 -0.5 25
2019-08-13 13:00:00 31.1 6 Noroeste 15 Oeste 0 992.7 0.1 28
2019-08-13 12:00:00 30.1 3 Oeste 6 Sudoeste 0 992.8 0.3 31
2019-08-13 11:00:00 27.2 0 Calma 8 Sudeste 0 992.7 0.8 31
2019-08-13 10:00:00 23 0 Calma 5 Sur 0 992.6 1.3 39
2019-08-13 09:00:00 18.6 0 Calma 6 Este 0 992.5 1.4 49
2019-08-13 08:00:00 14 2 Oeste 4 Oeste 0 991.9 1.1 53
2019-08-13 07:00:00 15.1 0 Calma 4 Sudeste 0 991.3 0.4 47
2019-08-13 06:00:00 16.5 2 Sudeste 8 Este 0 991.1 -0.1 42
2019-08-13 05:00:00 16.5 0 Calma 3 Oeste 0 990.8 -0.6 42
2019-08-13 04:00:00 17.9 0 Calma 5 Este 0 990.9 -0.4 38
2019-08-13 03:00:00 20.2 0 Calma 5 Sudeste 0 991.2 0 33
2019-08-13 02:00:00 21.6 0 Calma 4 Sur 0 991.4 0.8 29
2019-08-13 01:00:00 23.1 4 Sudeste 12 Sudeste 0 991.3 1.5 26
2019-08-13 00:00:00 24.6 5 Sudeste 16 Sudeste 0 991.2 2.4 24
2019-08-12 23:00:00 27.6 3 Este 17 Sudeste 0 990.6 2.3 23
2019-08-12 22:00:00 27.6 0 Calma 12 Norte 0 989.8 1.7 22
2019-08-12 21:00:00 30.4 4 Nordeste 17 Norte 0 988.8 0.4 20
2019-08-12 20:00:00 32.7 0 Calma 8 Sudeste 0 988.3 -0.7 20
2019-08-12 19:00:00 33.6 3 Sudoeste 13 Este 0 988.1 -1.7 18
2019-08-12 18:00:00 33.9 2 Nordeste 16 Este 0 988.4 -2.2 18
2019-08-12 17:00:00 34.5 7 Sudeste 23 Este 0 989 -2.3 19
2019-08-12 16:00:00 34.1 8 Sudeste 25 Este 0 989.8 -2.3 20
2019-08-12 15:00:00 32.1 10 Sudeste 26 Este 0 990.6 -1.8 22
2019-08-12 14:00:00 31.3 11 Sudeste 23 Este 0 991.3 -1.3 24
2019-08-12 13:00:00 29.7 9 Este 21 Este 0 992.1 -0.1 27
2019-08-12 12:00:00 27.9 10 Este 23 Este 0 992.4 0.1 31
2019-08-12 11:00:00 26.2 5 Sudeste 11 Sur 0 992.6 1 32
2019-08-12 10:00:00 23.6 0 Calma 6 Sudeste 0 992.2 0.9 39
2019-08-12 09:00:00 17.7 0 Calma 7 Este 0 992.3 1.1 50
2019-08-12 08:00:00 15.2 0 Calma 7 Este 0 991.6 0.3 51
2019-08-12 07:00:00 14.8 5 Este 8 Este 0 991.3 0 49
2019-08-12 06:00:00 15.2 2 Oeste 5 Sudeste 0 991.2 -0.6 49
2019-08-12 05:00:00 16.4 0 Calma 5 Oeste 0 991.3 -0.6 44
2019-08-12 04:00:00 17.6 0 Calma 6 Sudeste 0 991.3 -0.6 42
2019-08-12 03:00:00 18.6 2 Noroeste 11 Sudoeste 0 991.8 0.1 39
2019-08-12 02:00:00 19.7 0 Calma 6 Sur 0 991.9 0.6 34
2019-08-12 01:00:00 21.6 3 Sur 11 Noroeste 0 991.9 1.4 31
2019-08-12 00:00:00 22.4 5 Oeste 28 Noroeste 0 991.7 2 32
2019-08-11 23:00:00 24.8 10 Noroeste 16 Oeste 0 991.3 2.1 29
2019-08-11 22:00:00 24.9 9 Oeste 23 Oeste 0 990.5 1.3 30
2019-08-11 21:00:00 28.5 12 Oeste 25 Oeste 0 989.7 0.1 26
2019-08-11 20:00:00 30.6 19 Oeste 30 Oeste 0 989.2 -0.9 25
2019-08-11 19:00:00 31.7 15 Oeste 27 Oeste 0 989.2 -1.5 25
2019-08-11 18:00:00 32.9 16 Noroeste 26 Oeste 0 989.6 -1.9 25
2019-08-11 17:00:00 34.1 10 Oeste 26 Oeste 0 990.1 -2.1 23
2019-08-11 16:00:00 33.4 8 Sudoeste 27 Sudoeste 0 990.7 -1.9 24
2019-08-11 15:00:00 32 12 Oeste 25 Oeste 0 991.5 -1.3 27
2019-08-11 14:00:00 31 14 Oeste 27 Oeste 0 992.2 -0.3 32
2019-08-11 13:00:00 29.3 12 Oeste 20 Oeste 0 992.6 0 36
2019-08-11 12:00:00 28.8 9 Noroeste 18 Sudoeste 0 992.8 0.1 40
2019-08-11 11:00:00 27.3 8 Noroeste 16 Noroeste 0 992.5 0.3 42
2019-08-11 10:00:00 24.2 2 Oeste 5 Noroeste 0 992.6 0.6 50
2019-08-11 09:00:00 21 0 Calma 5 Este 0 992.7 1.1 59
2019-08-11 08:00:00 18.9 0 Calma 6 Noroeste 0 992.2 0.9 62
2019-08-11 07:00:00 17.3 4 Oeste 11 Oeste 0 992 1.3 69
2019-08-11 06:00:00 17.8 6 Oeste 11 Oeste 0 991.6 0.7 64
2019-08-11 05:00:00 21.2 5 Noroeste 12 Noroeste 0 991.3 0.1 52
2019-08-11 04:00:00 21 5 Noroeste 18 Oeste 0 990.7 0.1 53
2019-08-11 03:00:00 23 6 Oeste 14 Noroeste 0 990.9 0.3 44
2019-08-11 02:00:00 26.8 3 Sudoeste 27 Sudoeste 0 991.2 0.9 37
2019-08-11 01:00:00 28.1 16 Sudoeste 30 Sudoeste 0 990.6 1 38
2019-08-11 00:00:00 29 12 Oeste 24 Oeste 0 990.6 1.4 39
2019-08-10 23:00:00 30.2 14 Oeste 22 Oeste 0 990.3 1.2 38
2019-08-10 22:00:00 30.5 13 Oeste 19 Oeste 0 989.6 0.5 36
2019-08-10 21:00:00 31.2 14 Oeste 26 Oeste 0 989.2 -0.5 36
2019-08-10 20:00:00 32.7 17 Oeste 29 Oeste 0 989.1 -1.4 36
2019-08-10 19:00:00 34 13 Oeste 25 Oeste 0 989.1 -2.2 33
2019-08-10 18:00:00 35.2 14 Oeste 25 Oeste 0 989.7 -2.4 32
2019-08-10 17:00:00 36.6 9 Oeste 22 Oeste 0 990.5 -2.4 31
2019-08-10 16:00:00 36 6 Noroeste 23 Sudoeste 0 991.3 -2.5 34
2019-08-10 15:00:00 34.5 3 Noroeste 18 Noroeste 0 992.1 -2.1 36
2019-08-10 14:00:00 33.5 8 Oeste 19 Sudoeste 0 992.9 -1.2 40
2019-08-10 13:00:00 31.9 4 Oeste 13 Sudoeste 0 993.8 -0.3 42
2019-08-10 12:00:00 30.4 3 Oeste 10 Oeste 0 994.2 0 48
2019-08-10 11:00:00 28.1 3 Este 9 Este 0 994.1 -0.1 50
2019-08-10 10:00:00 26.4 0 Calma 12 Sur 0 994.1 0.5 60
2019-08-10 09:00:00 23.5 2 Oeste 14 Oeste 0 994.2 0.9 79
2019-08-10 08:00:00 21.5 6 Oeste 12 Oeste 0 994.2 1.2 90
2019-08-10 07:00:00 20.8 4 Oeste 10 Oeste 0 993.6 0.6 91
2019-08-10 06:00:00 21.8 8 Oeste 16 Oeste 0 993.3 0.4 88
2019-08-10 05:00:00 22.4 6 Noroeste 12 Oeste 0 993 0.3 84
2019-08-10 04:00:00 22.9 6 Noroeste 12 Oeste 0 993 0.4 77
2019-08-10 03:00:00 25 7 Oeste 22 Sudoeste 0 992.9 0.8 67
2019-08-10 02:00:00 26.4 13 Sudoeste 23 Sudoeste 0 992.7 1.4 64
2019-08-10 01:00:00 27.4 12 Sudoeste 29 Oeste 0 992.6 2.2 62
2019-08-10 00:00:00 28.6 16 Oeste 31 Oeste 0 992.1 2.3 53
2019-08-09 23:00:00 30.2 16 Oeste 27 Oeste 0 991.3 1.8 44
2019-08-09 22:00:00 30 8 Sudoeste 21 Sudoeste 0 990.4 0.8 39
2019-08-09 21:00:00 32.4 12 Oeste 27 Sudoeste 0 989.8 -0.1 36
2019-08-09 20:00:00 33.3 12 Oeste 34 Sudoeste 0 989.5 -0.8 37
2019-08-09 19:00:00 34.4 16 Oeste 31 Sudoeste 0 989.6 -1.4 37
2019-08-09 18:00:00 35.1 13 Oeste 34 Sudoeste 0 989.9 -1.8 38
2019-08-09 17:00:00 35.3 9 Oeste 30 Sudoeste 0 990.3 -1.9 36
2019-08-09 16:00:00 36.2 9 Oeste 29 Oeste 0 991 -1.7 38
2019-08-09 15:00:00 33.9 10 Oeste 21 Oeste 0 991.7 -1.3 41
2019-08-09 14:00:00 33.1 8 Oeste 21 Oeste 0 992.2 -0.7 44
2019-08-09 13:00:00 30.4 6 Noroeste 19 Noroeste 0 992.7 -0.2 51
2019-08-09 12:00:00 27.7 7 Noroeste 13 Oeste 0 993 0.2 56
2019-08-09 11:00:00 26.3 4 Oeste 14 Noroeste 0 992.9 0.4 62
2019-08-09 10:00:00 24.6 7 Oeste 13 Oeste 0 992.9 0.8 70
2019-08-09 09:00:00 21.6 5 Noroeste 9 Noroeste 0 992.8 0.8 78
2019-08-09 08:00:00 18.5 6 Oeste 6 Oeste 0 992.5 0.8 80
2019-08-09 07:00:00 18 4 Oeste 9 Oeste 0 992.1 0.6 77
2019-08-09 06:00:00 19.8 5 Oeste 12 Oeste 0 992 0.8 70
2019-08-09 05:00:00 19.8 5 Oeste 12 Oeste 0 991.7 1 64
2019-08-09 04:00:00 21.5 7 Sudoeste 12 Oeste 0 991.5 1.4 57
2019-08-09 03:00:00 21.2 5 Oeste 9 Noroeste 0 991.2 1.9 57
2019-08-09 02:00:00 25.4 3 Noroeste 28 Oeste 0 990.7 1.9 45
2019-08-09 01:00:00 27.6 13 Oeste 25 Oeste 0 990.1 2.2 40
2019-08-09 00:00:00 29.1 8 Oeste 26 Sudoeste 0 989.3 1.8 35
2019-08-08 23:00:00 29.2 12 Oeste 19 Oeste 0 988.8 1.6 35
2019-08-08 22:00:00 29.8 11 Oeste 18 Oeste 0 987.9 0.6 35
2019-08-08 21:00:00 30.4 10 Oeste 20 Oeste 0 987.5 0.1 36
2019-08-08 20:00:00 33.2 13 Oeste 30 Oeste 0 987.2 -0.5 32
2019-08-08 19:00:00 35.1 12 Oeste 27 Oeste 0 987.3 -1.2 33
2019-08-08 18:00:00 36.1 15 Oeste 29 Oeste 0 987.4 -1.7 31
2019-08-08 17:00:00 36 14 Oeste 32 Oeste 0 987.7 -2 32
2019-08-08 16:00:00 37.4 3 Oeste 21 Sudoeste 0 988.5 -1.8 31
2019-08-08 15:00:00 36.5 5 Noroeste 13 Noroeste 0 989.1 -1.6 34
2019-08-08 14:00:00 34.3 3 Oeste 11 Noroeste 0 989.7 -1 36
2019-08-08 13:00:00 33.4 5 Noroeste 12 Noroeste 0 990.3 -0.4 38
2019-08-08 12:00:00 31.7 2 Norte 9 Sudoeste 0 990.7 0.1 42
2019-08-08 11:00:00 28.8 4 Noroeste 10 Noroeste 0 990.7 0.4 51
2019-08-08 10:00:00 25.8 5 Noroeste 10 Noroeste 0 990.7 0.7 57
2019-08-08 09:00:00 22.5 0 Calma 4 Oeste 0 990.6 0.8 62
2019-08-08 08:00:00 19.1 0 Calma 4 Oeste 0 990.3 0.6 65
2019-08-08 07:00:00 19.5 0 Calma 4 Este 0 990 0.2 63
2019-08-08 06:00:00 20.7 0 Calma 4 Oeste 0 989.8 0.1 61
2019-08-08 05:00:00 21.6 2 Noroeste 8 Noroeste 0 989.7 -0.1 58
2019-08-08 04:00:00 23.2 5 Noroeste 9 Noroeste 0 989.8 0.3 54
2019-08-08 03:00:00 24 0 Calma 6 Oeste 0 989.7 0.3 51
2019-08-08 02:00:00 24 4 Oeste 8 Oeste 0 989.8 0.9 52
2019-08-08 01:00:00 25.7 4 Oeste 8 Oeste 0 989.5 1.3 49
2019-08-08 00:00:00 26.9 2 Oeste 8 Oeste 0 989.4 1.9 46
2019-08-07 23:00:00 27.4 4 Noroeste 8 Noroeste 0 988.9 1.2 46
2019-08-07 22:00:00 27.7 3 Oeste 6 Sudoeste 0 988.2 0.2 47
2019-08-07 21:00:00 30.3 2 Sudoeste 9 Oeste 0 987.5 -0.3 42
2019-08-07 20:00:00 30.6 6 Oeste 12 Oeste 0 987.7 -0.4 47
2019-08-07 19:00:00 31.8 8 Noroeste 13 Noroeste 0 988 -0.2 45
2019-08-07 18:00:00 32 10 Oeste 18 Oeste 0 987.8 -1 43
2019-08-07 17:00:00 31.3 13 Noroeste 19 Oeste 0 988.1 -1.3 42
2019-08-07 16:00:00 32.7 6 Oeste 20 Oeste 0 988.2 -1.6 36
2019-08-07 15:00:00 34.7 7 Sudoeste 22 Oeste 0 988.8 -1.2 34
2019-08-07 14:00:00 32.6 9 Oeste 18 Oeste 0 989.4 -0.6 40
2019-08-07 13:00:00 30.2 3 Noroeste 12 Noroeste 0 989.8 -0.1 42
2019-08-07 12:00:00 29 4 Noroeste 10 Oeste 0 990 0.5 45
2019-08-07 11:00:00 27.6 6 Noroeste 12 Noroeste 0 990 1.1 49
2019-08-07 10:00:00 25 8 Noroeste 11 Oeste 0 989.9 1.5 54
2019-08-07 09:00:00 22.3 0 Calma 2 Noroeste 0 989.5 1.2 56
2019-08-07 08:00:00 19 0 Calma 3 Sudoeste 0 988.9 0.6 57
2019-08-07 07:00:00 19.2 0 Calma 7 Oeste 0 988.4 0.3 54
2019-08-07 06:00:00 19.5 5 Oeste 9 Oeste 0 988.3 0.3 52
2019-08-07 05:00:00 20.6 3 Oeste 10 Noroeste 0 988.3 0.4 48
2019-08-07 04:00:00 20.1 6 Noroeste 12 Oeste 0 988.1 0.2 47
2019-08-07 03:00:00 20.4 8 Oeste 9 Oeste 0 988 0.2 45
2019-08-07 02:00:00 22.2 7 Oeste 22 Oeste 0 987.9 0.8 43
2019-08-07 01:00:00 28.2 15 Sudoeste 26 Oeste 0 987.9 1.8 31
2019-08-07 00:00:00 26.3 12 Oeste 21 Oeste 0 987.8 2.4 33
2019-08-06 23:00:00 24.3 6 Oeste 19 Oeste 0 987.1 2.1 34
2019-08-06 22:00:00 29.2 11 Oeste 18 Oeste 0 986.1 0.9 29
2019-08-06 21:00:00 30.1 11 Oeste 24 Oeste 0 985.4 -0.3 29
2019-08-06 20:00:00 33.9 14 Oeste 29 Oeste 0 985 -1.2 27
2019-08-06 19:00:00 35.3 14 Noroeste 28 Oeste 0 985.2 -2.1 28
2019-08-06 18:00:00 36.6 14 Oeste 30 Noroeste 0 985.7 -2.2 26
2019-08-06 17:00:00 37 13 Oeste 27 Noroeste 0 986.2 -2.5 27
2019-08-06 16:00:00 36.2 11 Oeste 24 Oeste 0 987.3 -2.4 28
2019-08-06 15:00:00 36.7 6 Noroeste 21 Oeste 0 987.9 -2.4 27
2019-08-06 14:00:00 34.2 5 Noroeste 12 Noroeste 0 988.7 -1.8 29
2019-08-06 13:00:00 32.4 0 Calma 9 Norte 0 989.7 -0.8 31
2019-08-06 12:00:00 31.2 3 Noroeste 8 Noroeste 0 990.3 -0.1 35
2019-08-06 11:00:00 28.1 3 Noroeste 8 Noroeste 0 990.5 0.3 40
2019-08-06 10:00:00 26 0 Calma 5 Oeste 0 990.5 0.5 46
2019-08-06 09:00:00 20.5 4 Noroeste 6 Noroeste 0 990.4 0.5 66
2019-08-06 08:00:00 17.6 0 Calma 2 Sudeste 0 990.2 0.3 63
2019-08-06 07:00:00 17.4 0 Calma 4 Sudeste 0 990 0.2 62
2019-08-06 06:00:00 18.5 0 Calma 9 Noroeste 0 989.9 0.2 62
2019-08-06 05:00:00 18.9 7 Noroeste 15 Oeste 0 989.9 0.2 57
2019-08-06 04:00:00 22.9 9 Oeste 14 Oeste 0 989.8 0.4 47
2019-08-06 03:00:00 22.9 8 Oeste 14 Oeste 0 989.7 1.1 46
2019-08-06 02:00:00 25.4 7 Noroeste 19 Oeste 0 989.7 1.7 43
2019-08-06 01:00:00 25.3 6 Oeste 24 Sudoeste 0 989.4 -- 41
2019-08-06 00:00:00 29.4 12 Sudoeste 20 Sudoeste 0 988.6 2.3 34
2019-08-05 23:00:00 29.4 8 Oeste 19 Oeste 0 988 2 28
2019-08-05 22:00:00 -- 9 Oeste 18 Oeste 0 -- -- --
2019-08-05 21:00:00 33.9 14 Oeste 27 Oeste 0 986.3 0.1 28
2019-08-05 20:00:00 35.2 18 Oeste 31 Oeste 0 986 -0.7 30
2019-08-05 19:00:00 35.4 14 Oeste 28 Oeste 0 986.1 -1.1 32
2019-08-05 18:00:00 36.5 13 Oeste 29 Oeste 0 986.2 -1.6 32
2019-08-05 17:00:00 37.6 12 Oeste 26 Oeste 0 986.7 -1.9 31
2019-08-05 16:00:00 37.2 9 Oeste 22 Oeste 0 987.2 -2.5 31
2019-08-05 15:00:00 37.1 4 Noroeste 16 Noroeste 0 987.8 -2.5 32
2019-08-05 14:00:00 35.9 3 Noroeste 8 Noroeste 0 988.6 -1.9 33
2019-08-05 13:00:00 34.2 3 Noroeste 7 Sudeste 0 989.7 -0.8 38
2019-08-05 12:00:00 31.1 3 Noroeste 8 Noroeste 0 990.3 -0.5 44
2019-08-05 11:00:00 29 3 Sudeste 10 Este 0 990.5 -0.2 45
2019-08-05 10:00:00 26.7 2 Sudeste 7 Sudeste 0 990.5 0.4 52
2019-08-05 09:00:00 21.5 0 Calma 5 Este 0 990.8 0.7 64
2019-08-05 08:00:00 17.8 0 Calma 3 Sudeste 0 990.7 0.5 69
2019-08-05 07:00:00 18.2 2 Sudoeste 4 Oeste 0 990.1 -0.1 69
2019-08-05 06:00:00 19 0 Calma 6 Oeste 0 990.1 -0.2 64
2019-08-05 05:00:00 19 4 Noroeste 8 Sudoeste 0 990.2 -0.1 64
2019-08-05 04:00:00 22 3 Oeste 6 Oeste 0 990.2 0.3 54
2019-08-05 03:00:00 22.3 2 Noroeste 5 Sudoeste 0 990.3 0.7 50
2019-08-05 02:00:00 24.1 4 Oeste 12 Noroeste 0 990.3 1.4 46
2019-08-05 01:00:00 24.2 7 Oeste 28 Oeste 0 989.9 1.8 42
2019-08-05 00:00:00 29.9 17 Sudoeste 29 Oeste 0 989.6 2.1 30
2019-08-04 23:00:00 30.7 12 Sudoeste 16 Sudoeste 0 988.9 1.9 30
2019-08-04 22:00:00 31.2 11 Oeste 19 Oeste 0 988.1 1.1 32
2019-08-04 21:00:00 32.4 9 Oeste 21 Oeste 0 987.5 0.2 32
2019-08-04 20:00:00 33.9 10 Oeste 23 Oeste 0 987 -0.5 32
2019-08-04 19:00:00 35 11 Noroeste 26 Oeste 0 987 -1.3 32
2019-08-04 18:00:00 36.3 12 Oeste 27 Oeste 0 987.3 -1.6 32
2019-08-04 17:00:00 37.5 8 Oeste 19 Oeste 0 987.5 -2.2 34
2019-08-04 16:00:00 36.4 8 Oeste 17 Noroeste 0 988.3 -2.2 36
2019-08-04 15:00:00 35.1 8 Oeste 16 Noroeste 0 988.9 -2.1 35
2019-08-04 14:00:00 33.8 6 Noroeste 14 Oeste 0 989.7 -1.6 38
2019-08-04 13:00:00 31.7 5 Noroeste 13 Noroeste 0 990.5 -1 39
2019-08-04 12:00:00 30.2 3 Oeste 11 Noroeste 0 991 -0.2 43
2019-08-04 11:00:00 27.7 2 Noroeste 9 Noroeste 0 991.3 0.4 48
2019-08-04 10:00:00 25.7 4 Noroeste 9 Noroeste 0 991.5 1 56
2019-08-04 09:00:00 22.3 0 Calma -- -- 0 991.2 0.8 62
2019-08-04 08:00:00 18.6 0 Calma 4 Norte 0 990.9 0.7 69
2019-08-04 07:00:00 18.4 0 Calma 4 Noroeste 0 990.5 0.3 65
2019-08-04 06:00:00 19 2 Oeste 4 Oeste 0 990.4 0.4 60
2019-08-04 05:00:00 20.3 0 Calma 4 Oeste 0 990.2 0.4 54
2019-08-04 04:00:00 21.9 0 Calma 10 Noroeste 0 990.2 0.7 49
2019-08-04 03:00:00 22.1 8 Oeste 14 Noroeste 0 990 1.2 50
2019-08-04 02:00:00 22.1 6 Noroeste 9 Oeste 0 989.8 1.6 46
2019-08-04 01:00:00 24.8 5 Noroeste 13 Oeste 0 989.5 2.1 40
2019-08-04 00:00:00 25.8 6 Oeste 22 Sudoeste 0 988.8 2.1 36
2019-08-03 23:00:00 29 12 Oeste 23 Oeste 0 988.2 1.8 32
2019-08-03 22:00:00 30.6 14 Oeste 24 Oeste 0 987.4 0.9 32
2019-08-03 21:00:00 32 15 Oeste 30 Oeste 0 986.7 -0.1 32
2019-08-03 20:00:00 33.2 16 Oeste 31 Oeste 0 986.4 -1.1 34
2019-08-03 19:00:00 34.3 17 Oeste 28 Oeste 0 986.5 -1.5 32
2019-08-03 18:00:00 35.2 14 Oeste 27 Oeste 0 986.8 -1.8 31
2019-08-03 17:00:00 34.9 16 Noroeste 26 Oeste 0 987.5 -1.6 32
2019-08-03 16:00:00 35.6 12 Noroeste 27 Noroeste 0 988 -1.8 30
2019-08-03 15:00:00 37.2 5 Oeste 18 Noroeste 0 988.6 -1.5 29
2019-08-03 14:00:00 35 4 Noroeste 14 Noroeste 0 989.1 -1.4 29
2019-08-03 13:00:00 33 7 Noroeste 14 Noroeste 0 989.8 -0.9 36
2019-08-03 12:00:00 31.7 3 Noroeste 8 Noroeste 0 990.1 -0.5 36
2019-08-03 11:00:00 29.2 0 Calma 8 Este 0 990.5 0 37
2019-08-03 10:00:00 26.1 3 Este 9 Sudeste 0 990.7 0.8 44
2019-08-03 09:00:00 21.4 0 Calma 4 Sur 0 990.6 1.3 53
2019-08-03 08:00:00 17.9 0 Calma 5 Sudeste 0 990.5 1.1 57
2019-08-03 07:00:00 18.2 0 Calma 7 Sudoeste 0 989.9 0.7 56
2019-08-03 06:00:00 19 0 Calma 6 Sudoeste 0 989.3 0.1 53
2019-08-03 05:00:00 18.4 0 Calma 5 Oeste 0 989.4 0.1 55
2019-08-03 04:00:00 18 4 Noroeste 6 Noroeste 0 989.2 0 57
2019-08-03 03:00:00 21.6 2 Sur 5 Sudoeste 0 989.2 0.6 41
2019-08-03 02:00:00 22.6 0 Calma 8 Sudoeste 0 989.3 1.3 40
2019-08-03 01:00:00 25.4 2 Noroeste 27 Sudoeste 0 989.2 1.8 32
2019-08-03 00:00:00 29.6 14 Sudoeste 24 Sudoeste 0 988.6 1.7 28
2019-08-02 23:00:00 29.7 13 Sudoeste 21 Oeste 0 988 1.4 28
2019-08-02 22:00:00 30.2 13 Oeste 19 Oeste 0 987.4 0.8 29
2019-08-02 21:00:00 33.2 12 Oeste 26 Oeste 0 986.9 0 23
2019-08-02 20:00:00 34.8 13 Oeste 27 Oeste 0 986.6 -0.8 24
2019-08-02 19:00:00 35.8 12 Oeste 24 Oeste 0 986.6 -1.3 23
2019-08-02 18:00:00 37.2 8 Sudoeste 26 Sudoeste 0 986.9 -1.6 22
2019-08-02 17:00:00 37.7 6 Sudoeste 21 Sudoeste 0 987.4 -1.6 23
2019-08-02 16:00:00 38.3 3 Sudoeste 17 Sudoeste 0 987.9 -1.8 24
2019-08-02 15:00:00 38.6 5 Oeste 18 Sudoeste 0 988.5 -1.5 27
2019-08-02 14:00:00 36.4 0 Calma 12 Oeste 0 989 -1.4 27
2019-08-02 13:00:00 34.8 2 Oeste 8 Oeste 0 989.7 -0.9 33
2019-08-02 12:00:00 31 2 Noroeste 6 Este 0 990 -0.4 38
2019-08-02 11:00:00 28.4 0 Calma 5 Noroeste 0 990.4 0.4 42
2019-08-02 10:00:00 25.8 3 Noroeste 6 Noroeste 0 990.6 0.8 53
2019-08-02 09:00:00 21.3 3 Noroeste 8 Noroeste 0 990.4 0.8 74
2019-08-02 08:00:00 17.5 4 Oeste 5 Oeste 0 990 0.4 74
2019-08-02 07:00:00 18.1 0 Calma 4 Oeste 0 989.8 0.7 67
2019-08-02 06:00:00 19.5 3 Oeste 7 Noroeste 0 989.6 0.4 64
2019-08-02 05:00:00 21.2 6 Oeste 13 Oeste 0 989.6 0.8 63
2019-08-02 04:00:00 21.2 4 Oeste 8 Oeste 0 989.1 0.7 70
2019-08-02 03:00:00 23 3 Oeste 7 Noroeste 0 989.2 0.9 64
2019-08-02 02:00:00 25.2 4 Noroeste 12 Norte 0 988.8 1 56
2019-08-02 01:00:00 26 7 Noroeste 26 Oeste 0 988.4 1.7 47
2019-08-02 00:00:00 29.9 13 Sudoeste 25 Sudoeste 0 988.3 2.4 36
2019-08-01 23:00:00 29.8 10 Sudoeste 17 Sudoeste 0 987.8 2.3 39
2019-08-01 22:00:00 31.3 9 Sudoeste 16 Oeste 0 986.7 1.3 37
2019-08-01 21:00:00 32.3 9 Oeste 17 Oeste 0 985.9 0.1 38
2019-08-01 20:00:00 33.9 8 Oeste 21 Sudoeste 0 985.5 -0.8 36
2019-08-01 19:00:00 35 9 Sudoeste 23 Sudoeste 0 985.4 -1.6 34
2019-08-01 18:00:00 36.5 11 Sudoeste 21 Oeste 0 985.8 -1.9 35
2019-08-01 17:00:00 35.4 9 Oeste 21 Oeste 0 986.3 -2 37
2019-08-01 16:00:00 34.8 8 Noroeste 19 Noroeste 0 987 -1.9 40
2019-08-01 15:00:00 34.1 8 Noroeste 24 Noroeste 0 987.7 -1.4 43
2019-08-01 14:00:00 32 8 Noroeste 26 Oeste 0 988.3 -1.2 48
2019-08-01 13:00:00 30.6 11 Oeste 21 Oeste 0 988.9 -0.4 52
2019-08-01 12:00:00 28.6 11 Noroeste 20 Noroeste 0 989.1 -0.1 58
2019-08-01 11:00:00 27.3 8 Noroeste 14 Noroeste 0 989.5 0.7 64
2019-08-01 10:00:00 25.5 8 Noroeste 15 Oeste 0 989.3 0.7 73
2019-08-01 09:00:00 23.9 0 Calma 2 Noroeste 0 989.2 0.7 78
2019-08-01 08:00:00 21.2 0 Calma 0 Calma 0 988.8 0.3 82
2019-08-01 07:00:00 21 0 Calma 7 Noroeste 0 988.6 0.3 83
2019-08-01 06:00:00 22.7 4 Noroeste 15 Sudoeste 0 988.5 0.6 80
2019-08-01 05:00:00 23.4 7 Oeste 17 Oeste 0 988.5 0.8 76
2019-08-01 04:00:00 22.1 6 Noroeste 9 Oeste 0 988.3 0.8 79
2019-08-01 03:00:00 23.1 7 Oeste 12 Oeste 0 987.9 1 74
2019-08-01 02:00:00 23.8 7 Oeste 15 Oeste 0 987.7 1.4 69
2019-08-01 01:00:00 25.5 10 Oeste 21 Oeste 0 987.5 2.4 60
2019-08-01 00:00:00 27.1 8 Oeste 21 Oeste 0 986.9 2.7 53
2019-07-31 23:00:00 29.2 12 Oeste 30 Oeste 0 986.3 2.3 43
2019-07-31 22:00:00 31.6 14 Oeste 25 Oeste 0 985.1 1.1 38
2019-07-31 21:00:00 32.6 12 Oeste 21 Oeste 0 984.2 -0.3 36
2019-07-31 20:00:00 33.2 9 Oeste 18 Oeste 0 984 -1.3 38
2019-07-31 19:00:00 36.7 8 Norte 17 Noroeste 0 984 -2 28
2019-07-31 18:00:00 36.1 5 Norte 19 Sudoeste 0 984.5 -2.1 27
2019-07-31 17:00:00 36.6 10 Oeste 23 Oeste 0 985.3 -2.2 29
2019-07-31 16:00:00 36.6 2 Noroeste 13 Oeste 0 986 -2.5 28
2019-07-31 15:00:00 34.7 5 Oeste 15 Noroeste 0 986.6 -2.3 28
2019-07-31 14:00:00 34.6 5 Oeste 12 Oeste 0 987.5 -1.4 27
2019-07-31 13:00:00 33.8 6 Oeste 12 Oeste 0 988.5 -0.2 31
2019-07-31 12:00:00 30.3 5 Noroeste 12 Noroeste 0 988.9 0.4 33
2019-07-31 11:00:00 28.4 8 Noroeste 11 Oeste 0 988.9 0.8 40
2019-07-31 10:00:00 24.4 2 Oeste 4 Oeste 0 988.7 1.3 49
2019-07-31 09:00:00 20.6 0 Calma 4 Sur 0 988.5 1.1 51
2019-07-31 08:00:00 18.3 0 Calma 4 Este 0 988.1 0.6 49
2019-07-31 07:00:00 17.3 2 Sudeste 8 Oeste 0 987.4 0 52
2019-07-31 06:00:00 17.7 0 Calma 5 Este 0 987.4 0.2 46
2019-07-31 05:00:00 18.5 4 Este 10 Sudeste 0 987.5 0.2 44
2019-07-31 04:00:00 19.1 2 Sudoeste 6 Sudoeste 0 987.4 0.1 44
2019-07-31 03:00:00 21.1 0 Calma 7 Oeste 0 987.2 0.3 43
2019-07-31 02:00:00 22 2 Este 6 Sudeste 0 987.3 0.6 40
2019-07-31 01:00:00 24.6 0 Calma 7 Sudoeste 0 987.3 1.5 34
2019-07-31 00:00:00 25.4 0 Calma 8 Sudoeste 0 986.9 1.6 35
2019-07-30 23:00:00 26.9 0 Calma 13 Oeste 0 986.7 1.6 33
2019-07-30 22:00:00 30 10 Oeste 17 Oeste 0 985.8 0.6 29
2019-07-30 21:00:00 30.7 9 Oeste 17 Oeste 0 985.3 -0.5 31
2019-07-30 20:00:00 32.9 7 Oeste 18 Oeste 0 985.1 -1.2 30
2019-07-30 19:00:00 34.5 7 Oeste 20 Oeste 0 985.2 -1.8 28
2019-07-30 18:00:00 35.6 9 Noroeste 21 Noroeste 0 985.8 -1.9 27
2019-07-30 17:00:00 36.9 5 Oeste 19 Sudoeste 0 986.3 -2.3 26
2019-07-30 16:00:00 36.2 10 Noroeste 17 Noroeste 0 987 -2.2 29
2019-07-30 15:00:00 35.7 2 Oeste 10 Oeste 0 987.7 -2 27
2019-07-30 14:00:00 33.7 3 Oeste 8 Este 0 988.6 -1.3 30
2019-07-30 13:00:00 33.2 3 Sudeste 16 Este 0 989.2 -0.9 29
2019-07-30 12:00:00 31.2 4 Este 15 Este 0 989.7 -0.3 35
2019-07-30 11:00:00 28.3 4 Este 10 Sudeste 0 989.9 0.2 37
2019-07-30 10:00:00 25.3 2 Noroeste 4 Noroeste 0 990.1 0.9 47
2019-07-30 09:00:00 21.4 0 Calma 2 Sudeste 0 990 1.1 54
2019-07-30 08:00:00 17.5 0 Calma 5 Este 0 989.7 1 62
2019-07-30 07:00:00 17.5 0 Calma 4 Noroeste 0 989.2 0.7 61
2019-07-30 06:00:00 17.4 4 Oeste 6 Oeste 0 988.9 0.6 61
2019-07-30 05:00:00 19.4 0 Calma 3 Sudeste 0 988.7 0.5 50
2019-07-30 04:00:00 21 0 Calma 8 Oeste 0 988.5 0.4 47
2019-07-30 03:00:00 23.1 6 Sudoeste 8 Sudoeste 0 988.3 0.6 44
2019-07-30 02:00:00 24.2 3 Sur 8 Sudoeste 0 988.2 1.1 40
2019-07-30 01:00:00 25.6 2 Noroeste 35 Sudoeste 0 988.1 1.9 39
2019-07-30 00:00:00 26.6 10 Oeste 13 Oeste 0 987.7 2.2 39
2019-07-29 23:00:00 26.6 7 Noroeste 19 Oeste 0 987.1 1.9 35
2019-07-29 22:00:00 28.8 9 Oeste 16 Oeste 0 986.2 0.9 32
2019-07-29 21:00:00 31.9 11 Oeste 22 Oeste 0 985.5 0 29
2019-07-29 20:00:00 33 12 Oeste 23 Oeste 0 985.2 -0.6 29
2019-07-29 19:00:00 33.6 12 Oeste 25 Oeste 0 985.3 -1.3 31
2019-07-29 18:00:00 34.5 12 Noroeste 22 Noroeste 0 985.5 -1.7 31
2019-07-29 17:00:00 33.8 7 Oeste 22 Noroeste 0 985.8 -2 32
2019-07-29 16:00:00 35 8 Oeste 26 Oeste 0 986.6 -2 32
2019-07-29 15:00:00 33.2 9 Sudoeste 22 Oeste 0 987.2 -1.7 35
2019-07-29 14:00:00 30.6 8 Noroeste 14 Noroeste 0 987.8 -1.2 40
2019-07-29 13:00:00 30.4 4 Noroeste 12 Norte 0 988.6 -0.5 48
2019-07-29 12:00:00 27.3 6 Noroeste 13 Noroeste 0 988.9 -0.2 54
2019-07-29 11:00:00 25 5 Oeste 16 Oeste 0 989 0.5 61
2019-07-29 10:00:00 23.2 8 Noroeste 15 Oeste 0 989.1 1.1 70
2019-07-29 09:00:00 21.2 8 Oeste 13 Oeste 0 989.1 1.6 77
2019-07-29 08:00:00 19 6 Oeste 10 Oeste 0 988.5 1.4 84
2019-07-29 07:00:00 19.1 6 Oeste 12 Oeste 0 988 0.8 82
2019-07-29 06:00:00 19.2 7 Oeste 11 Oeste 0 987.5 0.4 81
2019-07-29 05:00:00 19.5 4 Oeste 15 Oeste 0 987.1 0.5 77
2019-07-29 04:00:00 22.2 10 Oeste 17 Oeste 0 987.2 0.8 67
2019-07-29 03:00:00 23.4 10 Oeste 17 Oeste 0 987.1 1.2 63
2019-07-29 02:00:00 24.2 6 Oeste 26 Oeste 0 986.6 1.1 59
2019-07-29 01:00:00 25.7 13 Oeste 29 Oeste 0 986.4 1.8 54
2019-07-29 00:00:00 27.2 16 Oeste 27 Sudoeste 0 985.9 1.9 40
2019-07-28 23:00:00 26.6 9 Oeste 16 Sudoeste 0 985.5 2 37
2019-07-28 22:00:00 28.5 9 Sudoeste 13 Sudoeste 0 984.6 1.3 33
2019-07-28 21:00:00 29.5 7 Oeste 20 Sudoeste 0 984 0.4 32
2019-07-28 20:00:00 31.1 9 Oeste 23 Sudoeste 0 983.5 -0.6 35
2019-07-28 19:00:00 32.2 12 Oeste 25 Oeste 0 983.3 -1.4 35
2019-07-28 18:00:00 33 8 Noroeste 25 Oeste 0 983.6 -1.6 35
2019-07-28 17:00:00 32.5 12 Noroeste 23 Noroeste 0 984.1 -1.7 36
2019-07-28 16:00:00 33.1 8 Noroeste 18 Noroeste 0 984.7 -1.8 35
2019-07-28 15:00:00 32.3 4 Oeste 15 Sur 0 985.2 -2 38
2019-07-28 14:00:00 30.1 9 Sur 19 Sudeste 0 985.8 -1.7 38
2019-07-28 13:00:00 30.9 0 Calma 19 Este 0 986.5 -1.3 45
2019-07-28 12:00:00 29 4 Este 14 Este 0 987.2 -0.6 51
2019-07-28 11:00:00 26.3 0 Calma 8 Oeste 0 987.5 -0.2 62
2019-07-28 10:00:00 22.9 3 Norte 6 Noroeste 0 987.8 0.5 76
2019-07-28 09:00:00 21.6 3 Noroeste 10 Oeste 0 987.8 0.8 84
2019-07-28 08:00:00 20.8 4 Oeste 11 Noroeste 0 987.7 0.8 90
2019-07-28 07:00:00 20.9 5 Oeste 17 Sudoeste 0 987.3 0.2 84
2019-07-28 06:00:00 21.2 13 Sudoeste 19 Sudoeste 0 987 -0.3 83
2019-07-28 05:00:00 21.4 10 Sudoeste 21 Sudoeste 0 986.9 -0.5 84
2019-07-28 04:00:00 21.9 9 Oeste 20 Oeste 0 987.1 -0.4 83
2019-07-28 03:00:00 21.9 12 Oeste 19 Oeste 0 987.3 -0.2 82
2019-07-28 02:00:00 22.3 8 Oeste 24 Sudoeste 0 987.4 0.4 79
2019-07-28 01:00:00 22.6 13 Oeste 26 Oeste 0 987.5 1.3 76
2019-07-28 00:00:00 23.8 15 Oeste 30 Sudoeste 0 987.5 2 71
2019-07-27 23:00:00 24.4 17 Oeste 30 Oeste 0 987 1.7 65
2019-07-26 12:00:00 27.5 13 Oeste 24 Oeste 0 990 0.1 66
2019-07-26 11:00:00 24.6 9 Oeste 17 Oeste 0 989.6 -0.2 69
2019-07-26 10:00:00 23.4 9 Noroeste 19 Oeste 0 990 0.5 74
2019-07-26 09:00:00 22.8 8 Oeste 19 Oeste 0 989.9 0.5 76
2019-07-26 08:00:00 20.4 5 Noroeste 10 Oeste 0 989.8 0.4 83
2019-07-26 07:00:00 20.6 4 Oeste 11 Oeste 0 989.5 0 79
2019-07-26 06:00:00 21.9 8 Oeste 16 Oeste 0 989.4 -0.1 70
2019-07-26 05:00:00 22.3 8 Oeste 24 Oeste 0 989.4 -0.1 63
2019-07-26 04:00:00 24.1 14 Oeste 23 Oeste 0 989.5 0 60
2019-07-26 03:00:00 24.7 9 Oeste 31 Sudoeste 0 989.5 0.5 57
2019-07-26 02:00:00 26.5 14 Oeste 30 Sudoeste 0 989.5 1.3 46
2019-07-26 01:00:00 27.4 12 Oeste 21 Oeste 0 989.5 2.3 39
2019-07-26 00:00:00 28.7 10 Oeste 29 Oeste 0 989 2.3 38